createdAt,value
2022-12-11T00:01:31.184Z,44.47
2022-12-11T00:03:57.736Z,44.53
2022-12-11T00:06:24.327Z,43.90
2022-12-11T00:08:53.476Z,42.15
2022-12-11T00:11:22.048Z,44.78
2022-12-11T00:13:48.666Z,45.97
2022-12-11T00:16:15.393Z,49.78
2022-12-11T00:18:42.120Z,50.20
2022-12-11T00:21:12.854Z,46.22
2022-12-11T00:23:43.122Z,48.28
2022-12-11T00:26:14.518Z,49.72
2022-12-11T00:28:42.425Z,53.78
2022-12-11T00:31:12.824Z,56.03
2022-12-11T00:33:41.547Z,49.90
2022-12-11T00:36:13.520Z,63.05
2022-12-11T00:38:40.255Z,54.45
2022-12-11T00:41:06.888Z,57.17
2022-12-11T00:43:33.769Z,53.00
2022-12-11T00:46:00.637Z,54.22
2022-12-11T00:48:30.045Z,53.40
2022-12-11T00:50:56.683Z,55.50
2022-12-11T00:53:23.311Z,55.72
2022-12-11T00:55:50.097Z,54.47
2022-12-11T00:58:16.953Z,54.88
2022-12-11T01:00:44.158Z,51.95
2022-12-11T01:03:13.361Z,52.85
2022-12-11T01:05:41.361Z,47.83
2022-12-11T01:08:08.017Z,46.20
2022-12-11T01:10:35.003Z,50.10
2022-12-11T01:13:05.148Z,50.90
2022-12-11T01:15:42.050Z,48.75
2022-12-11T01:18:11.111Z,48.20
2022-12-11T01:20:40.774Z,51.28
2022-12-11T01:23:07.558Z,45.28
2022-12-11T01:25:38.126Z,45.58
2022-12-11T01:28:07.131Z,43.47
2022-12-11T01:30:37.357Z,46.03
2022-12-11T01:33:04.427Z,49.92
2022-12-11T01:35:31.131Z,44.53
2022-12-11T01:37:57.643Z,46.90
2022-12-11T01:40:24.261Z,48.47
2022-12-11T01:42:50.850Z,43.33
2022-12-11T01:45:53.086Z,44.75
2022-12-11T01:48:28.125Z,39.28
2022-12-11T01:51:04.807Z,46.30
2022-12-11T01:53:40.189Z,41.63
2022-12-11T01:56:08.465Z,41.13
2022-12-11T01:58:40.308Z,40.70
2022-12-11T02:01:07.253Z,45.83
2022-12-11T02:03:34.026Z,34.13
2022-12-11T02:06:02.431Z,41.80
2022-12-11T02:08:29.771Z,41.38
2022-12-11T02:11:06.590Z,44.92
2022-12-11T02:13:53.377Z,44.15
2022-12-11T02:16:21.387Z,42.90
2022-12-11T02:18:59.732Z,45.40
2022-12-11T02:21:32.534Z,42.08
2022-12-11T02:24:16.912Z,46.20
2022-12-11T02:27:14.243Z,45.10
2022-12-11T02:30:00.939Z,48.78
2022-12-11T02:32:36.234Z,48.97
2022-12-11T02:35:18.805Z,47.28
2022-12-11T02:37:48.531Z,57.45
2022-12-11T02:40:21.585Z,43.88
2022-12-11T02:42:49.790Z,47.08
2022-12-11T02:45:19.135Z,45.72
2022-12-11T02:47:47.962Z,45.97
2022-12-11T02:50:18.352Z,48.10
2022-12-11T02:52:48.293Z,45.53
2022-12-11T02:55:16.364Z,43.72
2022-12-11T02:57:47.852Z,43.17
2022-12-11T03:00:16.796Z,45.80
2022-12-11T03:02:44.258Z,48.30
2022-12-11T03:05:12.607Z,47.42
2022-12-11T03:07:42.334Z,43.53
2022-12-11T03:10:14.783Z,44.72
2022-12-11T03:12:46.158Z,51.53
2022-12-11T03:15:18.963Z,46.13
2022-12-11T03:17:50.162Z,49.47
2022-12-11T03:20:33.214Z,46.38
2022-12-11T03:23:27.542Z,48.78
2022-12-11T03:25:59.282Z,58.85
2022-12-11T03:28:46.854Z,47.53
2022-12-11T03:31:21.631Z,46.03
2022-12-11T03:33:54.324Z,54.72
2022-12-11T03:36:27.403Z,47.05
2022-12-11T03:39:01.788Z,57.60
2022-12-11T03:41:31.217Z,53.40
2022-12-11T03:43:59.037Z,53.75
2022-12-11T03:46:31.858Z,54.47
2022-12-11T03:49:03.585Z,54.92
2022-12-11T03:51:32.703Z,54.17
2022-12-11T03:54:00.155Z,54.15
2022-12-11T03:56:29.948Z,54.92
2022-12-11T03:58:56.519Z,50.90
2022-12-11T04:01:23.190Z,53.80
2022-12-11T04:03:49.869Z,50.05
2022-12-11T04:06:16.461Z,45.83
2022-12-11T04:08:42.974Z,46.45
2022-12-11T04:11:28.824Z,53.95
2022-12-11T04:14:14.048Z,46.05
2022-12-11T04:16:40.672Z,47.35
2022-12-11T04:19:26.209Z,51.35
2022-12-11T04:22:11.352Z,51.53
2022-12-11T04:24:39.431Z,50.45
2022-12-11T04:27:06.663Z,40.35
2022-12-11T04:29:33.888Z,46.00
2022-12-11T04:32:00.656Z,48.78
2022-12-11T04:34:27.703Z,49.40
2022-12-11T04:36:54.236Z,46.17
2022-12-11T04:39:20.989Z,52.58
2022-12-11T04:41:47.781Z,50.20
2022-12-11T04:44:14.327Z,55.85
2022-12-11T04:46:40.869Z,48.45
2022-12-11T04:49:10.156Z,54.13
2022-12-11T04:51:36.733Z,51.42
2022-12-11T04:54:03.782Z,53.00
2022-12-11T04:56:30.314Z,49.38
2022-12-11T04:58:57.165Z,54.30
2022-12-11T05:01:23.893Z,47.05
2022-12-11T05:03:50.652Z,64.22
2022-12-11T05:06:17.637Z,53.58
2022-12-11T05:08:45.363Z,57.88
2022-12-11T05:11:13.995Z,52.58
2022-12-11T05:13:40.674Z,45.22
2022-12-11T05:16:09.446Z,43.78
2022-12-11T05:18:36.398Z,49.75
2022-12-11T05:21:07.080Z,42.30
2022-12-11T05:23:34.164Z,47.65
2022-12-11T05:26:03.427Z,44.72
2022-12-11T05:28:32.791Z,40.38
2022-12-11T05:31:02.240Z,43.60
2022-12-11T05:33:29.459Z,41.05
2022-12-11T05:35:56.771Z,35.78
2022-12-11T05:38:24.252Z,35.45
2022-12-11T05:41:04.588Z,27.90
2022-12-11T05:43:33.434Z,27.15
2022-12-11T05:46:08.420Z,28.63
2022-12-11T05:48:35.682Z,28.25
2022-12-11T05:51:03.938Z,22.30
2022-12-11T05:53:30.875Z,26.90
2022-12-11T05:56:05.986Z,25.40
2022-12-11T05:58:33.007Z,27.23
2022-12-11T06:01:00.317Z,24.92
2022-12-11T06:03:28.555Z,23.83
2022-12-11T06:05:55.167Z,24.60
2022-12-11T06:08:21.798Z,25.05
2022-12-11T06:10:49.813Z,27.27
2022-12-11T06:13:16.837Z,29.00
2022-12-11T06:15:44.629Z,27.83
2022-12-11T06:18:11.319Z,24.85
2022-12-11T06:20:37.894Z,29.95
2022-12-11T06:23:05.687Z,33.60
2022-12-11T06:25:32.361Z,30.45
2022-12-11T06:27:59.171Z,31.55
2022-12-11T06:30:37.536Z,32.28
2022-12-11T06:33:06.631Z,30.58
2022-12-11T06:35:38.711Z,30.00
2022-12-11T06:38:08.854Z,36.92
2022-12-11T06:40:36.570Z,37.53
2022-12-11T06:43:03.528Z,32.38
2022-12-11T06:45:30.851Z,38.50
2022-12-11T06:47:58.472Z,35.50
2022-12-11T06:50:25.198Z,34.95
2022-12-11T06:52:51.854Z,35.70
2022-12-11T06:55:18.576Z,36.80
2022-12-11T06:57:45.385Z,37.25
2022-12-11T07:00:12.523Z,39.42
2022-12-11T07:02:39.161Z,35.53
2022-12-11T07:05:06.157Z,39.28
2022-12-11T07:07:32.923Z,40.85
2022-12-11T07:10:07.312Z,37.58
2022-12-11T07:12:35.204Z,38.40
2022-12-11T07:15:04.035Z,34.33
2022-12-11T07:17:30.973Z,42.83
2022-12-11T07:19:57.699Z,43.58
2022-12-11T07:22:24.446Z,37.08
2022-12-11T07:24:51.259Z,40.90
2022-12-11T07:27:17.789Z,42.80
2022-12-11T07:29:47.152Z,39.03
2022-12-11T07:32:15.532Z,36.25
2022-12-11T07:34:44.975Z,40.97
2022-12-11T07:37:13.874Z,43.63
2022-12-11T07:39:41.171Z,42.80
2022-12-11T07:42:07.791Z,44.38
2022-12-11T07:44:34.692Z,44.17
2022-12-11T07:47:02.057Z,43.53
2022-12-11T07:49:28.617Z,39.10
2022-12-11T07:51:56.036Z,45.35
2022-12-11T07:54:22.621Z,43.58
2022-12-11T07:56:53.385Z,43.92
2022-12-11T07:59:21.068Z,47.58
2022-12-11T08:01:47.858Z,48.45
2022-12-11T08:04:15.848Z,44.08
2022-12-11T08:06:43.717Z,51.50
2022-12-11T08:09:18.902Z,49.33
2022-12-11T08:11:50.442Z,47.75
2022-12-11T08:14:17.345Z,39.38
2022-12-11T08:16:44.256Z,40.17
2022-12-11T08:19:14.211Z,37.53
2022-12-11T08:21:41.267Z,33.78
2022-12-11T08:24:09.120Z,34.20
2022-12-11T08:26:36.053Z,36.30
2022-12-11T08:29:03.451Z,37.42
2022-12-11T08:31:30.613Z,33.97
2022-12-11T08:33:57.768Z,32.50
2022-12-11T08:36:25.999Z,33.97
2022-12-11T08:38:54.991Z,35.78
2022-12-11T08:41:28.093Z,38.30
2022-12-11T08:43:55.638Z,34.75
2022-12-11T08:46:25.119Z,35.67
2022-12-11T08:48:52.421Z,35.00
2022-12-11T08:51:22.811Z,34.60
2022-12-11T08:53:53.804Z,30.52
2022-12-11T08:56:21.579Z,35.22
2022-12-11T08:58:48.215Z,39.83
2022-12-11T09:01:21.617Z,42.42
2022-12-11T09:03:49.659Z,38.80
2022-12-11T09:06:18.731Z,34.40
2022-12-11T09:08:51.908Z,34.60
2022-12-11T09:11:21.892Z,31.30
2022-12-11T09:13:49.068Z,33.13
2022-12-11T09:16:19.078Z,28.85
2022-12-11T09:18:47.357Z,34.20
2022-12-11T09:21:17.025Z,32.92
2022-12-11T09:23:44.635Z,27.63
2022-12-11T09:26:14.347Z,30.17
2022-12-11T09:28:46.193Z,31.80
2022-12-11T09:31:19.239Z,35.95
2022-12-11T09:33:46.395Z,33.22
2022-12-11T09:36:13.088Z,33.85
2022-12-11T09:38:40.101Z,36.20
2022-12-11T09:41:22.358Z,33.78
2022-12-11T09:43:59.452Z,30.73
2022-12-11T09:46:33.504Z,29.80
2022-12-11T09:49:03.696Z,33.47
2022-12-11T09:51:46.897Z,31.88
2022-12-11T09:54:15.121Z,34.03
2022-12-11T09:57:03.662Z,31.80
2022-12-11T10:00:02.767Z,38.88
2022-12-11T10:02:40.939Z,33.78
2022-12-11T10:05:17.735Z,33.83
2022-12-11T10:08:00.701Z,28.85
2022-12-11T10:10:41.718Z,32.22
2022-12-11T10:13:23.337Z,30.80
2022-12-11T10:15:55.435Z,28.83
2022-12-11T10:18:25.137Z,29.60
2022-12-11T10:20:53.878Z,36.85
2022-12-11T10:23:30.459Z,33.00
2022-12-11T10:26:02.581Z,32.40
2022-12-11T10:28:29.237Z,30.33
2022-12-11T10:31:19.067Z,35.28
2022-12-11T10:34:01.105Z,34.75
2022-12-11T10:36:37.138Z,37.65
2022-12-11T10:39:12.329Z,56.13
2022-12-11T10:41:47.836Z,45.10
2022-12-11T10:44:26.359Z,40.45
2022-12-11T10:47:02.292Z,48.13
2022-12-11T10:49:33.487Z,49.20
2022-12-11T10:52:02.633Z,44.50
2022-12-11T10:54:40.030Z,40.83
2022-12-11T10:57:10.332Z,33.60
2022-12-11T10:59:45.600Z,37.95
2022-12-11T11:02:31.873Z,34.60
2022-12-11T11:05:15.409Z,39.47
2022-12-11T11:07:42.196Z,38.10
2022-12-11T11:10:11.680Z,31.52
2022-12-11T11:12:51.065Z,30.58
2022-12-11T11:32:33.651Z,40.72
2022-12-11T11:35:12.586Z,47.33
2022-12-11T11:37:42.533Z,52.03
2022-12-11T11:40:22.183Z,42.53
2022-12-11T11:43:15.612Z,40.20
2022-12-11T11:45:51.141Z,47.05
2022-12-11T11:48:53.418Z,41.60
2022-12-11T11:51:46.268Z,34.65
2022-12-11T11:54:56.030Z,37.40
2022-12-11T11:57:45.600Z,43.13
2022-12-11T12:00:27.486Z,34.55
2022-12-11T12:03:03.483Z,34.42
2022-12-11T12:06:04.472Z,36.03
2022-12-11T12:08:46.566Z,39.67
2022-12-11T12:11:39.041Z,30.65
2022-12-11T12:14:53.781Z,36.85
2022-12-11T12:17:55.857Z,30.42
2022-12-11T12:20:48.524Z,35.92
2022-12-11T12:23:36.983Z,26.23
2022-12-11T12:26:30.243Z,24.73
2022-12-11T12:29:18.764Z,20.67
2022-12-11T12:32:02.143Z,26.20
2022-12-11T12:34:38.706Z,22.98
2022-12-11T12:37:36.466Z,26.50
2022-12-11T12:40:06.248Z,25.23
2022-12-11T12:43:10.216Z,22.35
2022-12-11T12:45:55.442Z,27.83
2022-12-11T12:48:24.889Z,26.15
2022-12-11T12:50:51.700Z,24.90
2022-12-11T12:53:23.793Z,25.00
2022-12-11T12:55:51.852Z,25.98
2022-12-11T12:58:39.517Z,25.73
2022-12-11T13:01:07.958Z,25.02
2022-12-11T13:03:48.576Z,28.98
2022-12-11T13:06:15.374Z,29.40
2022-12-11T13:08:47.904Z,25.10
2022-12-11T13:11:18.486Z,29.95
2022-12-11T13:14:01.453Z,25.85
2022-12-11T13:16:37.776Z,28.23
2022-12-11T13:19:16.835Z,23.42
2022-12-11T13:21:43.554Z,29.05
2022-12-11T13:24:13.162Z,26.10
2022-12-11T13:26:40.438Z,28.73
2022-12-11T13:29:34.765Z,30.23
2022-12-11T13:32:21.884Z,25.30
2022-12-11T13:34:56.751Z,27.52
2022-12-11T13:37:29.765Z,26.60
2022-12-11T13:39:57.049Z,26.52
2022-12-11T13:42:37.754Z,27.60
2022-12-11T13:45:05.471Z,32.00
2022-12-11T13:47:33.230Z,27.25
2022-12-11T13:50:27.547Z,28.13
2022-12-11T13:52:55.827Z,43.85
2022-12-11T13:55:28.644Z,32.80
2022-12-11T13:57:55.433Z,30.52
2022-12-11T14:00:32.596Z,28.60
2022-12-11T14:03:04.795Z,30.67
2022-12-11T14:05:31.620Z,30.77
2022-12-11T14:08:02.256Z,31.70
2022-12-11T14:10:32.452Z,30.08
2022-12-11T14:13:04.202Z,106.28
2022-12-11T14:15:33.145Z,45.95
2022-12-11T14:18:00.719Z,55.08
2022-12-11T14:20:35.221Z,62.58
2022-12-11T14:23:19.535Z,27.77
2022-12-11T14:25:58.698Z,41.97
2022-12-11T14:28:27.839Z,23.63
2022-12-11T14:30:59.693Z,27.95
2022-12-11T14:33:32.429Z,40.08
2022-12-11T14:36:00.500Z,38.45
2022-12-11T14:38:28.684Z,35.90
2022-12-11T14:41:05.011Z,31.00
2022-12-11T14:43:38.979Z,32.50
2022-12-11T14:46:11.453Z,34.95
2022-12-11T14:48:47.983Z,30.90
2022-12-11T14:51:17.704Z,28.98
2022-12-11T14:53:48.961Z,39.65
2022-12-11T14:56:21.698Z,30.30
2022-12-11T14:58:58.151Z,38.38
2022-12-11T15:01:28.328Z,32.08
2022-12-11T15:04:05.935Z,33.45
2022-12-11T15:06:42.302Z,31.88
2022-12-11T15:09:33.747Z,30.55
2022-12-11T15:12:18.414Z,34.33
2022-12-11T15:14:57.634Z,30.92
2022-12-11T15:17:26.233Z,32.97
2022-12-11T15:19:56.838Z,34.47
2022-12-11T15:22:27.077Z,31.92
2022-12-11T15:24:54.836Z,32.25
2022-12-11T15:27:30.842Z,40.60
2022-12-11T15:29:57.677Z,41.93
2022-12-11T15:32:24.709Z,38.33
2022-12-11T15:34:59.487Z,31.58
2022-12-11T15:37:38.442Z,37.70
2022-12-11T15:40:05.938Z,38.72
2022-12-11T15:42:36.762Z,33.92
2022-12-11T15:45:06.774Z,36.50
2022-12-11T15:47:33.552Z,37.92
2022-12-11T15:50:07.717Z,34.88
2022-12-11T15:52:34.603Z,39.63
2022-12-11T15:55:01.809Z,39.33
2022-12-11T15:57:28.465Z,45.95
2022-12-11T15:59:55.371Z,37.92
2022-12-11T16:02:22.081Z,44.22
2022-12-11T16:04:48.700Z,40.17
2022-12-11T16:07:22.214Z,44.72
2022-12-11T16:09:48.854Z,49.20
2022-12-11T16:12:16.283Z,44.75
2022-12-11T16:14:44.717Z,43.38
2022-12-11T16:17:13.782Z,55.17
2022-12-11T16:19:41.924Z,61.30
2022-12-11T16:22:10.021Z,62.03
2022-12-11T16:24:37.764Z,48.20
2022-12-11T16:27:05.462Z,46.92
2022-12-11T16:29:40.323Z,49.20
2022-12-11T16:32:08.343Z,45.08
2022-12-11T16:34:37.204Z,41.92
2022-12-11T16:37:08.528Z,47.95
2022-12-11T16:39:37.365Z,39.85
2022-12-11T16:42:07.097Z,45.97
2022-12-11T16:44:33.810Z,43.88
2022-12-11T16:47:00.467Z,47.33
2022-12-11T16:49:27.823Z,64.68
2022-12-11T16:51:54.340Z,60.33
2022-12-11T16:54:20.857Z,43.28
2022-12-11T16:56:47.450Z,50.38
2022-12-11T16:59:14.118Z,68.45
2022-12-11T17:01:41.732Z,89.88
2022-12-11T17:04:08.434Z,45.45
2022-12-11T17:06:34.968Z,49.47
2022-12-11T17:09:03.050Z,43.47
2022-12-11T17:11:29.583Z,46.20
2022-12-11T17:13:58.100Z,37.03
2022-12-11T17:16:28.891Z,43.55
2022-12-11T17:18:55.602Z,48.95
2022-12-11T17:21:23.229Z,40.15
2022-12-11T17:23:50.982Z,40.28
2022-12-11T17:26:18.293Z,37.67
2022-12-11T17:28:44.957Z,39.13
2022-12-11T17:31:15.109Z,47.28
2022-12-11T17:33:42.315Z,64.80
2022-12-11T17:36:09.434Z,46.13
2022-12-11T17:38:35.963Z,38.95
2022-12-11T17:41:06.468Z,47.80
2022-12-11T17:43:33.190Z,40.10
2022-12-11T17:45:59.937Z,39.40
2022-12-11T17:48:26.780Z,37.60
2022-12-11T17:50:54.054Z,39.60
2022-12-11T17:53:22.018Z,40.80
2022-12-11T17:55:51.629Z,40.10
2022-12-11T17:58:21.777Z,41.03
2022-12-11T18:00:51.111Z,38.72
2022-12-11T18:03:19.135Z,38.00
2022-12-11T18:05:52.198Z,34.17
2022-12-11T18:08:22.108Z,35.55
2022-12-11T18:10:48.728Z,42.88
2022-12-11T18:13:15.839Z,39.63
2022-12-11T18:15:42.458Z,32.35
2022-12-11T18:18:10.252Z,38.22
2022-12-11T18:20:37.755Z,67.47
2022-12-11T18:23:05.050Z,38.38
2022-12-11T18:25:31.803Z,37.00
2022-12-11T18:27:59.647Z,33.65
2022-12-11T18:30:26.588Z,42.17
2022-12-11T18:32:53.595Z,38.13
2022-12-11T18:35:20.426Z,50.08
2022-12-11T18:37:47.005Z,40.75
2022-12-11T18:40:13.516Z,35.58
2022-12-11T18:42:40.292Z,36.08
2022-12-11T18:45:07.378Z,35.53
2022-12-11T18:47:33.949Z,34.97
2022-12-11T18:50:07.133Z,38.85
2022-12-11T18:52:34.723Z,37.90
2022-12-11T18:55:02.308Z,38.50
2022-12-11T18:57:29.025Z,34.25
2022-12-11T18:59:55.640Z,40.70
2022-12-11T19:02:22.461Z,38.22
2022-12-11T19:04:49.125Z,40.25
2022-12-11T19:07:15.682Z,34.17
2022-12-11T19:09:47.575Z,40.83
2022-12-11T19:12:14.828Z,37.13
2022-12-11T19:14:41.530Z,38.50
2022-12-11T19:17:08.128Z,44.83
2022-12-11T19:19:35.844Z,42.80
2022-12-11T19:22:02.804Z,48.85
2022-12-11T19:24:29.529Z,48.42
2022-12-11T19:26:56.476Z,48.17
2022-12-11T19:29:29.684Z,48.63
2022-12-11T19:31:56.351Z,46.25
2022-12-11T19:34:23.429Z,45.65
2022-12-11T19:36:50.084Z,46.70
2022-12-11T19:39:16.918Z,46.38
2022-12-11T19:41:43.664Z,47.63
2022-12-11T19:44:10.245Z,45.95
2022-12-11T19:46:36.906Z,46.67
2022-12-11T19:49:04.364Z,49.22
2022-12-11T19:51:33.952Z,49.95
2022-12-11T19:54:04.364Z,53.28
2022-12-11T19:56:32.485Z,52.92
2022-12-11T19:59:00.727Z,51.45
2022-12-11T20:01:31.028Z,48.72
2022-12-11T20:04:00.471Z,44.55
2022-12-11T20:06:29.128Z,44.83
2022-12-11T20:08:56.036Z,54.40
2022-12-11T20:11:22.748Z,54.70
2022-12-11T20:13:50.284Z,56.38
2022-12-11T20:16:28.874Z,49.65
2022-12-11T20:19:08.269Z,56.90
2022-12-11T20:21:34.827Z,52.03
2022-12-11T20:24:02.342Z,55.78
2022-12-11T20:26:31.039Z,48.97
2022-12-11T20:28:57.713Z,56.47
2022-12-11T20:31:25.979Z,51.00
2022-12-11T20:33:53.567Z,52.17
2022-12-11T20:36:21.959Z,57.53
2022-12-11T20:38:48.866Z,51.03
2022-12-11T20:41:18.933Z,53.03
2022-12-11T20:43:46.439Z,51.95
2022-12-11T20:46:17.481Z,60.13
2022-12-11T20:48:45.222Z,63.47
2022-12-11T20:51:14.145Z,53.25
2022-12-11T20:53:42.336Z,54.83
2022-12-11T20:56:16.491Z,53.50
2022-12-11T20:58:44.162Z,67.63
2022-12-11T21:01:19.388Z,63.85
2022-12-11T21:03:46.477Z,84.30
2022-12-11T21:06:25.896Z,72.57
2022-12-11T21:08:53.245Z,67.30
2022-12-11T21:11:20.665Z,64.05
2022-12-11T21:13:50.519Z,85.20
2022-12-11T21:16:18.172Z,92.80
2022-12-11T21:18:46.403Z,85.05
2022-12-11T21:21:13.463Z,95.57
2022-12-11T21:23:40.097Z,94.68
2022-12-11T21:26:06.700Z,82.05
2022-12-11T21:28:35.561Z,70.90
2022-12-11T21:31:06.146Z,70.57
2022-12-11T21:33:32.795Z,65.88
2022-12-11T21:36:00.568Z,64.80
2022-12-11T21:38:27.963Z,60.05
2022-12-11T21:40:55.888Z,59.17
2022-12-11T21:43:23.050Z,76.53
2022-12-11T21:46:06.520Z,78.88
2022-12-11T21:48:33.410Z,65.30
2022-12-11T21:51:08.646Z,67.47
2022-12-11T21:53:35.544Z,67.05
2022-12-11T21:56:09.915Z,59.85
2022-12-11T21:58:37.818Z,69.28
2022-12-11T22:01:06.210Z,71.38
2022-12-11T22:03:32.778Z,72.80
2022-12-11T22:05:59.418Z,68.90
2022-12-11T22:08:26.130Z,73.85
2022-12-11T22:10:52.901Z,65.10
2022-12-11T22:13:19.645Z,75.63
2022-12-11T22:15:46.276Z,73.40
2022-12-11T22:18:12.999Z,69.80
2022-12-11T22:20:39.582Z,62.42
2022-12-11T22:23:06.259Z,73.20
2022-12-11T22:25:32.809Z,63.00
2022-12-11T22:27:59.384Z,70.03
2022-12-11T22:30:26.300Z,70.80
2022-12-11T22:32:52.948Z,76.30
2022-12-11T22:35:24.144Z,71.18
2022-12-11T22:37:53.554Z,65.63
2022-12-11T22:40:20.238Z,67.78
2022-12-11T22:42:47.421Z,70.72
2022-12-11T22:45:14.365Z,68.50
2022-12-11T22:47:41.389Z,61.38
2022-12-11T22:50:08.869Z,74.63
2022-12-11T22:52:36.088Z,72.70
2022-12-11T22:55:02.641Z,66.95
2022-12-11T22:57:29.238Z,60.75
2022-12-11T23:17:27.303Z,61.20
2022-12-11T23:19:54.103Z,67.90
2022-12-11T23:22:21.282Z,60.38
2022-12-11T23:24:47.866Z,73.70
2022-12-11T23:27:15.325Z,69.80
2022-12-11T23:29:41.952Z,66.45
2022-12-11T23:32:09.091Z,63.75
2022-12-11T23:34:35.623Z,70.35
2022-12-11T23:37:02.176Z,74.13
2022-12-11T23:39:28.883Z,71.05
2022-12-11T23:41:55.443Z,64.00
2022-12-11T23:44:22.600Z,68.70
2022-12-11T23:46:49.645Z,72.32
2022-12-11T23:49:16.228Z,65.07
2022-12-11T23:51:42.941Z,61.65
2022-12-11T23:54:09.519Z,61.08
2022-12-11T23:56:36.211Z,65.47
2022-12-11T23:59:03.194Z,62.60
